createdAt,value
2023-04-19T00:01:29.645Z,3.70
2023-04-19T00:03:56.990Z,3.90
2023-04-19T00:06:24.688Z,4.03
2023-04-19T00:08:52.041Z,3.80
2023-04-19T00:11:21.334Z,3.93
2023-04-19T00:13:49.308Z,3.80
2023-04-19T00:16:19.479Z,3.40
2023-04-19T00:18:46.763Z,3.73
2023-04-19T00:21:13.725Z,4.43
2023-04-19T00:23:42.983Z,3.53
2023-04-19T00:26:11.713Z,4.17
2023-04-19T00:28:43.131Z,4.30
2023-04-19T00:31:12.615Z,3.80
2023-04-19T00:33:39.570Z,3.80
2023-04-19T00:36:06.712Z,4.03
2023-04-19T00:38:35.810Z,4.13
2023-04-19T00:41:02.729Z,4.77
2023-04-19T00:43:29.532Z,4.30
2023-04-19T00:45:59.073Z,4.33
2023-04-19T00:48:26.158Z,4.50
2023-04-19T00:50:53.325Z,4.03
2023-04-19T00:53:20.239Z,5.30
2023-04-19T00:55:50.968Z,4.20
2023-04-19T00:58:18.136Z,4.50
2023-04-19T01:00:45.075Z,4.90
2023-04-19T01:03:13.675Z,4.53
2023-04-19T01:05:40.921Z,5.70
2023-04-19T01:08:08.358Z,5.07
2023-04-19T01:10:37.381Z,4.97
2023-04-19T01:13:04.428Z,4.57
2023-04-19T01:15:33.822Z,4.73
2023-04-19T01:18:03.800Z,5.17
2023-04-19T01:20:30.722Z,5.53
2023-04-19T01:22:57.714Z,4.50
2023-04-19T01:25:24.597Z,4.80
2023-04-19T01:27:51.465Z,5.77
2023-04-19T01:30:20.681Z,5.57
2023-04-19T01:32:47.664Z,4.50
2023-04-19T01:35:16.860Z,4.87
2023-04-19T01:37:46.134Z,4.63
2023-04-19T01:40:13.585Z,5.23
2023-04-19T01:42:40.401Z,4.50
2023-04-19T01:45:08.006Z,4.00
2023-04-19T01:47:34.863Z,4.97
2023-04-19T01:50:01.717Z,5.00
2023-04-19T01:52:31.538Z,4.60
2023-04-19T01:54:58.623Z,5.10
2023-04-19T01:57:28.018Z,4.77
2023-04-19T01:59:54.922Z,5.40
2023-04-19T02:02:22.097Z,4.30
2023-04-19T02:04:51.287Z,4.40
2023-04-19T02:07:18.114Z,4.00
2023-04-19T02:09:47.204Z,4.40
2023-04-19T02:12:14.067Z,3.63
2023-04-19T02:14:41.063Z,4.00
2023-04-19T02:17:10.225Z,4.50
2023-04-19T02:19:37.112Z,4.20
2023-04-19T02:22:03.906Z,4.33
2023-04-19T02:24:30.796Z,4.70
2023-04-19T02:26:57.788Z,4.43
2023-04-19T02:29:24.638Z,4.43
2023-04-19T02:31:51.611Z,4.27
2023-04-19T02:34:18.680Z,3.77
2023-04-19T02:36:45.620Z,4.40
2023-04-19T02:39:12.594Z,4.43
2023-04-19T02:41:41.845Z,4.30
2023-04-19T02:44:08.940Z,4.53
2023-04-19T02:46:35.896Z,4.63
2023-04-19T02:49:02.832Z,3.83
2023-04-19T02:51:29.860Z,4.20
2023-04-19T02:53:56.727Z,4.43
2023-04-19T02:56:23.934Z,4.10
2023-04-19T02:58:52.832Z,3.57
2023-04-19T03:01:21.845Z,4.27
2023-04-19T03:03:48.961Z,4.33
2023-04-19T03:06:18.436Z,4.10
2023-04-19T03:08:45.828Z,4.27
2023-04-19T03:11:17.910Z,3.90
2023-04-19T03:13:44.817Z,3.60
2023-04-19T03:16:14.210Z,3.87
2023-04-19T03:18:41.101Z,4.13
2023-04-19T03:21:09.534Z,3.73
2023-04-19T03:23:37.761Z,4.50
2023-04-19T03:26:04.846Z,3.60
2023-04-19T03:28:31.673Z,3.83
2023-04-19T03:30:58.516Z,4.20
2023-04-19T03:33:28.436Z,3.30
2023-04-19T03:35:57.585Z,3.87
2023-04-19T03:38:26.740Z,4.00
2023-04-19T03:40:53.563Z,4.13
2023-04-19T03:43:20.424Z,3.70
2023-04-19T03:45:47.319Z,4.10
2023-04-19T03:48:17.166Z,3.97
2023-04-19T03:50:44.034Z,3.90
2023-04-19T03:53:10.975Z,3.97
2023-04-19T03:55:37.786Z,4.27
2023-04-19T03:58:07.168Z,3.50
2023-04-19T04:00:34.166Z,3.70
2023-04-19T04:03:01.474Z,3.70
2023-04-19T04:05:31.499Z,3.57
2023-04-19T04:08:01.569Z,3.70
2023-04-19T04:10:28.501Z,3.67
2023-04-19T04:12:55.424Z,3.57
2023-04-19T04:15:25.029Z,4.60
2023-04-19T04:17:51.938Z,3.67
2023-04-19T04:20:19.311Z,3.67
2023-04-19T04:22:47.217Z,3.73
2023-04-19T04:25:18.695Z,3.40
2023-04-19T04:27:46.408Z,3.83
2023-04-19T04:30:13.577Z,4.00
2023-04-19T04:32:40.980Z,3.23
2023-04-19T04:35:12.285Z,4.03
2023-04-19T04:37:40.217Z,3.90
2023-04-19T04:40:08.943Z,4.07
2023-04-19T04:42:37.844Z,3.70
2023-04-19T04:45:07.462Z,3.90
2023-04-19T04:47:34.955Z,4.07
2023-04-19T04:50:05.055Z,3.87
2023-04-19T04:52:31.972Z,3.40
2023-04-19T04:54:58.839Z,3.13
2023-04-19T04:57:25.725Z,3.20
2023-04-19T04:59:52.710Z,3.10
2023-04-19T05:02:19.621Z,3.27
2023-04-19T05:04:46.607Z,3.07
2023-04-19T05:07:13.745Z,3.37
2023-04-19T05:09:40.603Z,3.53
2023-04-19T05:12:10.561Z,3.00
2023-04-19T05:14:37.453Z,3.40
2023-04-19T05:17:07.248Z,3.07
2023-04-19T05:19:34.225Z,2.83
2023-04-19T05:22:03.713Z,3.00
2023-04-19T05:24:33.565Z,3.00
2023-04-19T05:27:01.748Z,3.27
2023-04-19T05:29:28.665Z,3.10
2023-04-19T05:31:55.812Z,2.80
2023-04-19T05:34:25.968Z,2.83
2023-04-19T05:36:52.864Z,2.30
2023-04-19T05:39:19.705Z,3.27
2023-04-19T05:41:48.243Z,2.37
2023-04-19T05:44:15.452Z,2.33
2023-04-19T05:46:42.744Z,2.00
2023-04-19T05:49:09.571Z,1.90
2023-04-19T05:51:36.583Z,2.50
2023-04-19T05:54:03.766Z,2.00
2023-04-19T05:56:30.648Z,1.90
2023-04-19T05:58:58.282Z,2.03
2023-04-19T06:01:25.317Z,1.83
2023-04-19T06:03:54.400Z,1.80
2023-04-19T06:06:25.176Z,1.83
2023-04-19T06:08:54.622Z,1.90
2023-04-19T06:11:31.463Z,1.77
2023-04-19T06:14:08.712Z,1.70
2023-04-19T06:16:35.615Z,2.07
2023-04-19T06:19:05.379Z,1.70
2023-04-19T06:21:37.292Z,2.10
2023-04-19T06:24:05.772Z,1.70
2023-04-19T06:26:32.828Z,1.10
2023-04-19T06:29:02.297Z,1.40
2023-04-19T06:31:29.402Z,1.70
2023-04-19T06:33:56.493Z,1.70
2023-04-19T06:36:25.625Z,1.90
2023-04-19T06:38:55.537Z,1.20
2023-04-19T06:41:23.075Z,1.40
2023-04-19T06:43:52.492Z,1.53
2023-04-19T06:46:19.328Z,1.33
2023-04-19T06:48:48.309Z,1.10
2023-04-19T06:51:18.451Z,1.50
2023-04-19T06:53:45.308Z,1.30
2023-04-19T06:56:14.421Z,1.23
2023-04-19T06:58:41.300Z,1.57
2023-04-19T07:01:08.184Z,1.20
2023-04-19T07:03:35.350Z,1.53
2023-04-19T07:06:02.564Z,2.23
2023-04-19T07:08:48.292Z,1.00
2023-04-19T07:11:16.007Z,1.10
2023-04-19T07:13:47.417Z,1.40
2023-04-19T07:16:16.933Z,1.57
2023-04-19T07:18:44.075Z,3.67
2023-04-19T07:21:11.900Z,1.33
2023-04-19T07:23:41.004Z,1.20
2023-04-19T07:26:08.444Z,1.63
2023-04-19T07:28:35.983Z,1.27
2023-04-19T07:31:05.688Z,1.40
2023-04-19T07:33:32.733Z,1.30
2023-04-19T07:36:02.030Z,1.33
2023-04-19T07:38:29.047Z,1.27
2023-04-19T07:40:58.160Z,1.40
2023-04-19T07:43:25.113Z,1.63
2023-04-19T07:45:52.672Z,1.60
2023-04-19T07:48:21.913Z,1.83
2023-04-19T07:50:49.261Z,1.40
2023-04-19T07:53:19.044Z,1.20
2023-04-19T07:55:46.032Z,1.70
2023-04-19T07:58:12.919Z,1.73
2023-04-19T08:00:42.290Z,1.57
2023-04-19T08:03:14.179Z,1.60
2023-04-19T08:05:41.471Z,1.60
2023-04-19T08:08:08.394Z,1.60
2023-04-19T08:10:36.001Z,1.53
2023-04-19T08:13:06.280Z,1.60
2023-04-19T08:18:05.635Z,1.40
2023-04-19T08:20:33.206Z,1.63
2023-04-19T08:23:10.263Z,1.57
2023-04-19T08:25:41.750Z,1.90
2023-04-19T08:28:08.791Z,1.93
2023-04-19T08:30:38.121Z,2.07
2023-04-19T08:33:05.040Z,1.77
2023-04-19T08:35:31.986Z,1.90
2023-04-19T08:37:59.029Z,1.73
2023-04-19T08:40:25.921Z,1.30
2023-04-19T08:42:52.783Z,2.00
2023-04-19T08:45:28.380Z,1.80
2023-04-19T08:48:01.463Z,2.63
2023-04-19T08:50:36.113Z,1.90
2023-04-19T08:55:59.205Z,2.17
2023-04-19T09:01:05.802Z,1.80
2023-04-19T09:03:47.186Z,2.00
2023-04-19T09:06:26.684Z,1.80
2023-04-19T09:08:58.333Z,2.10
2023-04-19T09:11:40.347Z,1.70
2023-04-19T09:14:13.481Z,2.33
2023-04-19T09:16:46.111Z,1.97
2023-04-19T09:19:23.093Z,2.40
2023-04-19T09:21:55.711Z,2.07
2023-04-19T09:27:16.726Z,2.40
2023-04-19T09:29:56.561Z,2.53
2023-04-19T09:32:24.708Z,2.57
2023-04-19T09:35:02.717Z,1.97
2023-04-19T09:37:51.266Z,1.83
2023-04-19T09:40:28.884Z,1.80
2023-04-19T09:43:07.376Z,2.20
2023-04-19T09:45:45.786Z,2.27
2023-04-19T09:48:13.722Z,2.30
2023-04-19T09:51:06.222Z,2.10
2023-04-19T09:53:39.310Z,2.23
2023-04-19T09:56:07.568Z,2.50
2023-04-19T09:58:46.861Z,2.23
2023-04-19T10:01:19.393Z,2.83
2023-04-19T10:03:50.965Z,2.30
2023-04-19T10:08:54.746Z,2.10
2023-04-19T10:11:27.381Z,2.10
2023-04-19T10:14:00.198Z,2.00
2023-04-19T10:16:30.577Z,2.70
2023-04-19T10:19:01.790Z,2.60
2023-04-19T10:21:29.262Z,2.00
2023-04-19T10:23:59.844Z,2.30
2023-04-19T10:27:07.369Z,2.67
2023-04-19T10:29:56.220Z,2.57
2023-04-19T10:32:45.630Z,2.40
2023-04-19T10:35:29.505Z,2.20
2023-04-19T10:38:16.601Z,2.73
2023-04-19T10:40:56.542Z,2.63
2023-04-19T10:43:26.878Z,2.70
2023-04-19T10:46:00.358Z,3.40
2023-04-19T10:48:33.550Z,2.60
2023-04-19T10:51:16.949Z,2.37
2023-04-19T10:53:43.804Z,3.10
2023-04-19T10:56:10.745Z,3.30
2023-04-19T10:59:02.812Z,2.67
2023-04-19T11:01:45.478Z,2.43
2023-04-19T11:04:19.682Z,3.80
2023-04-19T11:06:52.690Z,2.70
2023-04-19T11:09:30.921Z,2.50
2023-04-19T11:12:01.453Z,2.90
2023-04-19T11:14:35.146Z,2.20
2023-04-19T11:17:16.182Z,2.53
2023-04-19T11:19:53.946Z,2.77
2023-04-19T11:22:31.111Z,2.73
2023-04-19T11:25:05.415Z,3.10
2023-04-19T11:27:34.048Z,3.00
2023-04-19T11:30:08.013Z,2.80
2023-04-19T11:32:38.829Z,3.10
2023-04-19T11:35:10.100Z,2.37
2023-04-19T11:37:39.181Z,2.93
2023-04-19T11:40:14.361Z,2.47
2023-04-19T11:42:44.113Z,2.83
2023-04-19T11:47:54.258Z,2.83
2023-04-19T11:50:38.423Z,2.67
2023-04-19T11:53:24.394Z,2.63
2023-04-19T11:55:52.988Z,2.63
2023-04-19T11:58:44.712Z,2.20
2023-04-19T12:01:16.520Z,2.90
2023-04-19T12:03:51.453Z,3.10
2023-04-19T12:06:33.330Z,2.83
2023-04-19T12:09:00.914Z,2.83
2023-04-19T12:11:50.380Z,2.80
2023-04-19T12:14:23.181Z,2.90
2023-04-19T12:17:16.194Z,2.40
2023-04-19T12:19:52.181Z,2.77
2023-04-19T12:22:24.285Z,3.20
2023-04-19T12:24:56.161Z,2.90
2023-04-19T12:27:25.788Z,3.03
2023-04-19T12:29:53.473Z,3.20
2023-04-19T12:32:21.062Z,2.70
2023-04-19T12:34:48.364Z,2.60
2023-04-19T12:37:15.522Z,3.20
2023-04-19T12:39:44.782Z,3.20
2023-04-19T12:42:12.130Z,2.93
2023-04-19T12:44:39.437Z,2.80
2023-04-19T12:47:08.849Z,3.10
2023-04-19T12:49:38.989Z,2.87
2023-04-19T12:52:07.298Z,3.30
2023-04-19T12:54:41.610Z,3.10
2023-04-19T12:57:09.004Z,2.70
2023-04-19T12:59:37.937Z,3.30
2023-04-19T13:02:08.034Z,2.80
2023-04-19T13:04:42.564Z,3.00
2023-04-19T13:07:12.294Z,2.60
2023-04-19T13:09:43.876Z,2.73
2023-04-19T13:12:11.070Z,3.60
2023-04-19T13:14:38.332Z,3.20
2023-04-19T13:17:05.625Z,3.37
2023-04-19T13:19:34.968Z,3.20
2023-04-19T13:22:01.985Z,3.50
2023-04-19T13:24:29.063Z,3.10
2023-04-19T13:27:00.809Z,3.13
2023-04-19T13:29:30.422Z,3.17
2023-04-19T13:31:59.950Z,3.00
2023-04-19T13:34:27.059Z,3.40
2023-04-19T13:36:54.238Z,2.90
2023-04-19T13:39:21.730Z,3.33
2023-04-19T13:41:51.310Z,2.90
2023-04-19T13:44:18.525Z,3.10
2023-04-19T13:46:45.843Z,3.10
2023-04-19T13:49:15.246Z,3.33
2023-04-19T13:51:50.049Z,2.70
2023-04-19T13:54:18.965Z,3.57
2023-04-19T13:56:46.398Z,2.90
2023-04-19T14:00:09.400Z,2.93
2023-04-19T14:02:42.665Z,2.90
2023-04-19T14:05:15.536Z,2.80
2023-04-19T14:07:46.336Z,7.73
2023-04-19T14:10:16.034Z,2.97
2023-04-19T14:12:43.064Z,2.83
2023-04-19T14:15:16.989Z,3.70
2023-04-19T14:17:44.445Z,3.00
2023-04-19T14:20:12.699Z,3.10
2023-04-19T14:22:40.321Z,3.00
2023-04-19T14:25:07.934Z,4.03
2023-04-19T14:27:38.546Z,3.13
2023-04-19T14:30:07.727Z,2.87
2023-04-19T14:32:35.145Z,2.83
2023-04-19T14:35:04.932Z,2.83
2023-04-19T14:37:34.618Z,2.90
2023-04-19T14:40:01.762Z,2.70
2023-04-19T14:42:33.885Z,3.40
2023-04-19T14:45:03.885Z,2.90
2023-04-19T14:47:31.282Z,2.80
2023-04-19T14:50:00.991Z,2.80
2023-04-19T14:52:30.285Z,3.30
2023-04-19T14:54:58.065Z,3.23
2023-04-19T14:57:25.902Z,2.63
2023-04-19T14:59:59.274Z,3.70
2023-04-19T15:02:26.953Z,3.63
2023-04-19T15:04:57.359Z,3.03
2023-04-19T15:07:24.828Z,3.50
2023-04-19T15:09:52.249Z,2.97
2023-04-19T15:12:19.416Z,3.03
2023-04-19T15:14:49.110Z,3.00
2023-04-19T15:17:18.671Z,3.43
2023-04-19T15:19:47.816Z,3.20
2023-04-19T15:22:17.452Z,3.30
2023-04-19T15:24:44.928Z,2.67
2023-04-19T15:27:14.672Z,3.23
2023-04-19T15:29:42.147Z,3.00
2023-04-19T15:32:12.524Z,3.13
2023-04-19T15:34:39.733Z,3.50
2023-04-19T15:37:08.236Z,3.17
2023-04-19T15:39:37.809Z,3.60
2023-04-19T15:42:06.141Z,3.40
2023-04-19T15:44:35.951Z,2.93
2023-04-19T15:47:06.065Z,3.00
2023-04-19T15:49:33.289Z,3.40
2023-04-19T15:52:00.725Z,3.07
2023-04-19T15:54:29.082Z,2.70
2023-04-19T15:56:57.635Z,3.27
2023-04-19T15:59:29.871Z,3.10
2023-04-19T16:01:59.729Z,3.90
2023-04-19T16:04:27.241Z,3.50
2023-04-19T16:06:55.644Z,3.37
2023-04-19T16:09:23.115Z,3.20
2023-04-19T16:11:51.914Z,4.33
2023-04-19T16:14:19.222Z,3.10
2023-04-19T16:16:46.836Z,2.90
2023-04-19T16:19:16.708Z,2.60
2023-04-19T16:21:43.788Z,3.03
2023-04-19T16:25:40.331Z,3.90
2023-04-19T16:28:10.272Z,2.70
2023-04-19T16:30:40.182Z,3.03
2023-04-19T16:33:07.661Z,3.10
2023-04-19T16:35:37.531Z,3.37
2023-04-19T16:38:05.145Z,3.50
2023-04-19T16:40:37.212Z,4.10
2023-04-19T16:43:06.419Z,3.20
2023-04-19T16:45:33.949Z,2.90
2023-04-19T16:48:03.725Z,2.90
2023-04-19T16:50:33.340Z,2.63
2023-04-19T16:53:07.742Z,3.50
2023-04-19T16:55:44.589Z,2.87
2023-04-19T16:58:15.875Z,2.67
2023-04-19T17:00:46.757Z,2.83
2023-04-19T17:03:15.254Z,2.97
2023-04-19T17:05:45.103Z,2.80
2023-04-19T17:08:14.321Z,2.70
2023-04-19T17:10:43.117Z,2.50
2023-04-19T17:13:10.605Z,3.30
2023-04-19T17:15:40.800Z,2.60
2023-04-19T17:18:12.018Z,3.10
2023-04-19T17:20:43.689Z,2.83
2023-04-19T17:23:25.819Z,2.43
2023-04-19T17:26:06.380Z,2.60
2023-04-19T17:28:35.990Z,2.73
2023-04-19T17:31:04.332Z,2.77
2023-04-19T17:33:33.052Z,2.87
2023-04-19T17:36:04.065Z,2.47
2023-04-19T17:38:32.143Z,2.93
2023-04-19T17:41:03.633Z,2.80
2023-04-19T17:43:30.541Z,3.03
2023-04-19T17:45:59.763Z,2.80
2023-04-19T17:48:29.579Z,2.63
2023-04-19T17:50:56.492Z,2.57
2023-04-19T17:53:23.369Z,2.87
2023-04-19T17:55:51.708Z,2.73
2023-04-19T17:58:18.575Z,3.13
2023-04-19T18:00:48.022Z,3.20
2023-04-19T18:03:18.936Z,2.87
2023-04-19T18:05:46.077Z,3.83
2023-04-19T18:08:13.494Z,2.80
2023-04-19T18:10:40.409Z,3.07
2023-04-19T18:13:10.284Z,2.53
2023-04-19T18:15:39.609Z,2.70
2023-04-19T18:18:08.623Z,3.40
2023-04-19T18:20:37.934Z,2.50
2023-04-19T18:23:04.972Z,2.77
2023-04-19T18:25:35.100Z,3.20
2023-04-19T18:28:02.238Z,3.03
2023-04-19T18:30:29.140Z,3.30
2023-04-19T18:32:55.981Z,3.60
2023-04-19T18:35:25.972Z,3.73
2023-04-19T18:37:52.832Z,3.30
2023-04-19T18:40:19.942Z,3.43
2023-04-19T18:42:49.181Z,2.90
2023-04-19T18:45:16.322Z,3.00
2023-04-19T18:47:43.291Z,3.87
2023-04-19T18:50:13.347Z,3.60
2023-04-19T18:52:45.966Z,2.80
2023-04-19T18:55:16.004Z,3.20
2023-04-19T18:57:42.936Z,3.33
2023-04-19T19:00:11.330Z,2.93
2023-04-19T19:02:41.524Z,2.67
2023-04-19T19:05:13.762Z,2.83
2023-04-19T19:07:41.642Z,2.67
2023-04-19T19:10:19.241Z,3.10
2023-04-19T19:12:53.889Z,3.47
2023-04-19T19:15:20.775Z,2.50
2023-04-19T19:17:50.337Z,2.77
2023-04-19T19:20:19.518Z,2.70
2023-04-19T19:22:46.457Z,2.77
2023-04-19T19:25:13.607Z,3.30
2023-04-19T19:27:58.389Z,2.73
2023-04-19T19:30:33.531Z,3.03
2023-04-19T19:33:02.360Z,3.00
2023-04-19T19:35:31.429Z,5.00
2023-04-19T19:37:58.415Z,3.20
2023-04-19T19:40:25.275Z,3.13
2023-04-19T19:42:52.116Z,2.80
2023-04-19T19:45:22.090Z,2.77
2023-04-19T19:47:51.656Z,3.57
2023-04-19T19:52:51.272Z,2.87
2023-04-19T19:55:18.397Z,2.37
2023-04-19T20:00:42.025Z,2.77
2023-04-19T20:03:06.250Z,2.67
2023-04-19T20:05:34.099Z,3.27
2023-04-19T20:08:15.604Z,2.87
2023-04-19T20:10:45.137Z,2.60
2023-04-19T20:13:13.234Z,2.90
2023-04-19T20:15:45.320Z,3.20
2023-04-19T20:18:12.325Z,3.90
2023-04-19T20:20:41.533Z,3.93
2023-04-19T20:23:08.863Z,3.60
2023-04-19T20:25:35.948Z,4.53
2023-04-19T20:28:03.441Z,4.87
2023-04-19T20:30:31.119Z,5.30
2023-04-19T20:33:01.178Z,5.20
2023-04-19T20:35:28.461Z,5.27
2023-04-19T20:38:02.124Z,4.73
2023-04-19T20:40:31.639Z,5.33
2023-04-19T20:42:58.717Z,4.57
2023-04-19T20:45:25.839Z,5.07
2023-04-19T20:47:54.197Z,4.93
2023-04-19T20:50:24.364Z,4.70
2023-04-19T20:52:53.458Z,5.17
2023-04-19T20:55:22.951Z,5.33
2023-04-19T20:57:49.834Z,4.80
2023-04-19T21:00:17.144Z,4.07
2023-04-19T21:02:47.157Z,3.60
2023-04-19T21:05:14.192Z,3.63
2023-04-19T21:07:41.010Z,4.03
2023-04-19T21:10:08.491Z,3.83
2023-04-19T21:12:38.352Z,3.90
2023-04-19T21:15:06.347Z,3.80
2023-04-19T21:17:35.475Z,4.63
2023-04-19T21:20:02.641Z,4.00
2023-04-19T21:22:31.908Z,4.10
2023-04-19T21:25:01.260Z,3.90
2023-04-19T21:27:30.108Z,3.53
2023-04-19T21:29:56.930Z,3.83
2023-04-19T21:32:23.882Z,3.90
2023-04-19T21:34:50.814Z,3.87
2023-04-19T21:37:20.827Z,4.13
2023-04-19T21:39:49.181Z,3.33
2023-04-19T21:42:16.055Z,4.07
2023-04-19T21:44:42.890Z,3.60
2023-04-19T21:47:10.956Z,3.30
2023-04-19T21:49:44.762Z,3.67
2023-04-19T21:52:11.699Z,3.77
2023-04-19T21:54:38.565Z,3.63
2023-04-19T21:57:05.586Z,3.40
2023-04-19T21:59:38.590Z,3.40
2023-04-19T22:02:05.651Z,3.47
2023-04-19T22:04:32.693Z,3.07
2023-04-19T22:07:02.728Z,2.90
2023-04-19T22:09:30.551Z,3.43
2023-04-19T22:12:00.895Z,3.00
2023-04-19T22:14:28.562Z,3.00
2023-04-19T22:16:56.658Z,2.97
2023-04-19T22:19:26.242Z,2.73
2023-04-19T22:21:53.601Z,2.83
2023-04-19T22:24:22.128Z,3.00
2023-04-19T22:26:50.150Z,2.87
2023-04-19T22:29:18.133Z,3.00
2023-04-19T22:31:45.468Z,3.60
2023-04-19T22:34:14.678Z,3.30
2023-04-19T22:36:41.645Z,3.53
2023-04-19T22:39:09.072Z,2.93
2023-04-19T22:41:36.238Z,3.17
2023-04-19T22:44:06.141Z,4.80
2023-04-19T22:46:36.639Z,3.73
2023-04-19T22:49:06.326Z,3.20
2023-04-19T22:51:36.753Z,3.73
2023-04-19T22:54:04.460Z,3.90
2023-04-19T22:56:31.327Z,3.07
2023-04-19T22:58:58.326Z,3.17
2023-04-19T23:01:27.426Z,3.43
2023-04-19T23:03:55.035Z,3.20
2023-04-19T23:06:22.765Z,3.40
2023-04-19T23:08:50.540Z,3.53
2023-04-19T23:11:17.690Z,3.70
2023-04-19T23:13:47.454Z,3.40
2023-04-19T23:16:17.030Z,3.80
2023-04-19T23:18:47.063Z,3.77
2023-04-19T23:21:14.490Z,3.60
2023-04-19T23:23:41.398Z,3.20
2023-04-19T23:26:10.514Z,3.20
2023-04-19T23:28:37.685Z,3.10
2023-04-19T23:31:05.314Z,3.67
2023-04-19T23:33:32.277Z,3.70
2023-04-19T23:36:01.346Z,4.07
2023-04-19T23:38:30.668Z,3.23
2023-04-19T23:41:00.450Z,3.40
2023-04-19T23:43:31.869Z,4.10
2023-04-19T23:45:58.754Z,3.70
2023-04-19T23:48:25.957Z,3.93
2023-04-19T23:50:55.414Z,3.70
2023-04-19T23:53:22.519Z,3.60
2023-04-19T23:55:51.792Z,3.43
2023-04-19T23:58:20.152Z,3.63
